首页
METAR-TAF:

METAR-TAF

机场 :

邓迪, 苏格兰

纬度: 56-27N, 经度: 003-01W, 海拔: 4米

当前天气观测

该预报发布于9小时和20分钟前的20:20 UTC
风速6节,风向西北
温度 5°C
湿度 75%
气压 1022 hPa
能见度10公里或以上
少量云层高于4000英尺

METAR: EGPN 302020Z 31006KT 9999 FEW040 05/01 Q1022

时间: 05:40 (05:40 UTC)

预报

该预报发布于12小时和44分钟前的16:56 UTC
预报有效从30日的 18点(UTC)到 30日的 21点(UTC)
风速9节,风向西北
能见度10公里或以上
少量云层高于4000英尺

TAF: EGPN 301656Z 3018/3021 31009KT 9999 FEW040

超过4000个机场的气象观测和天气预报(METAR&TAF报告)。

可查询的气象台以黄色和红色小点在地图上表示。

将鼠标移到小点上方,可查看气象台名称。

然后点击查看天气观测和预报。

如需切换地图:点击带黑十字的绿色按钮放大地图;点击带横线的绿色按钮缩小地图;或者点击绿色箭头查看邻近地区的地图。


METAR-TAF: